Time;durP1;ratioP1;P1;durP2;ratioP2;P2;SDS_P1;SDS_P2;PMS_P1;PMS_P2;Temp;Humidity;BMP_temperature;BMP_pressure;BME280_temperature;BME280_humidity;BME280_pressure;Samples;Min_cycle;Max_cycle;Signal;HPM_P1;HPM_P2
2021/10/14 00:01:57;0.00;0.00;0.62;0.00;0.00;0.62;3.03;1.30;;;25.30;28.80;;;;;;2253855;61;20440;-60
2021/10/14 00:04:42;0.00;0.00;0.62;0.00;0.00;0.62;1.70;1.10;;;25.20;28.80;;;;;;2253586;61;20384;-60
2021/10/14 00:07:26;0.00;0.00;0.62;0.00;0.00;0.62;1.90;1.10;;;25.20;28.80;;;;;;2253030;61;20363;-60
2021/10/14 00:10:12;0.00;0.00;0.62;0.00;0.00;0.62;2.20;1.10;;;25.20;28.80;;;;;;2253368;61;20760;-61
2021/10/14 00:12:57;0.00;0.00;0.62;0.00;0.00;0.62;1.60;1.10;;;25.10;28.80;;;;;;2253578;61;20585;-60
2021/10/14 00:15:42;0.00;0.00;0.62;0.00;0.00;0.62;1.93;0.97;;;25.10;28.90;;;;;;2253434;61;20647;-60
2021/10/14 00:18:27;0.00;0.00;0.62;0.00;0.00;0.62;1.50;0.90;;;25.10;28.90;;;;;;2253066;61;20784;-61
2021/10/14 00:21:11;0.00;0.00;0.62;0.00;0.00;0.62;3.10;1.60;;;25.00;28.90;;;;;;2253586;61;20364;-60
2021/10/14 00:23:56;0.00;0.00;0.62;0.00;0.00;0.62;1.93;1.27;;;25.00;28.90;;;;;;2253733;61;20359;-60
2021/10/14 00:26:41;0.00;0.00;0.62;0.00;0.00;0.62;1.37;0.87;;;25.00;28.90;;;;;;2253526;61;20363;-60
2021/10/14 00:29:26;0.00;0.00;0.62;0.00;0.00;0.62;1.87;1.30;;;24.90;28.90;;;;;;2253254;61;20474;-60
2021/10/14 00:32:10;0.00;0.00;0.62;0.00;0.00;0.62;3.00;1.30;;;24.90;28.90;;;;;;2253412;61;20379;-60
2021/10/14 00:34:55;0.00;0.00;0.62;0.00;0.00;0.62;2.47;1.40;;;24.80;28.90;;;;;;2253756;61;20375;-60
2021/10/14 00:37:40;0.00;0.00;0.62;0.00;0.00;0.62;1.87;1.20;;;24.80;28.90;;;;;;2253376;61;20415;-60
2021/10/14 00:40:25;0.00;0.00;0.62;0.00;0.00;0.62;2.37;1.30;;;24.70;28.90;;;;;;2253150;61;20363;-59
2021/10/14 00:43:11;0.00;0.00;0.62;0.00;0.00;0.62;2.27;1.47;;;24.70;29.00;;;;;;2253554;61;20407;-59
2021/10/14 00:45:55;0.00;0.00;0.62;0.00;0.00;0.62;2.70;1.40;;;24.60;28.90;;;;;;2253190;61;20386;-60
2021/10/14 00:48:40;0.00;0.00;0.62;0.00;0.00;0.62;1.67;1.10;;;24.60;29.00;;;;;;2252953;61;20640;-59
2021/10/14 00:51:27;0.00;0.00;0.62;0.00;0.00;0.62;1.97;1.20;;;24.50;29.00;;;;;;2253202;61;20374;-59
2021/10/14 00:54:13;0.00;0.00;0.62;0.00;0.00;0.62;2.07;1.20;;;24.50;29.00;;;;;;2253151;61;20367;-61
2021/10/14 00:56:57;0.00;0.00;0.62;0.00;0.00;0.62;1.80;1.00;;;24.50;29.10;;;;;;2253656;61;20351;-61
2021/10/14 00:59:44;0.00;0.00;0.62;0.00;0.00;0.62;1.83;1.17;;;24.50;29.10;;;;;;2253349;61;20360;-61
2021/10/14 01:02:29;0.00;0.00;0.62;0.00;0.00;0.62;2.17;1.10;;;24.50;29.20;;;;;;2253430;61;20492;-61
2021/10/14 01:05:13;0.00;0.00;0.62;0.00;0.00;0.62;1.90;1.20;;;24.50;29.30;;;;;;2253571;61;20763;-60
2021/10/14 01:07:58;0.00;0.00;0.62;0.00;0.00;0.62;1.30;0.90;;;24.40;29.30;;;;;;2253117;61;20390;-61
2021/10/14 01:10:42;0.00;0.00;0.62;0.00;0.00;0.62;1.70;1.00;;;24.40;29.30;;;;;;2253357;61;20379;-61
2021/10/14 01:13:27;0.00;0.00;0.62;0.00;0.00;0.62;1.77;1.10;;;24.40;29.30;;;;;;2253042;61;20478;-60
2021/10/14 01:16:13;0.00;0.00;0.62;0.00;0.00;0.62;1.60;1.00;;;24.40;29.30;;;;;;2252907;61;20603;-61
2021/10/14 01:18:57;0.00;0.00;0.62;0.00;0.00;0.62;1.67;0.80;;;24.40;29.30;;;;;;2253752;61;20427;-60
2021/10/14 01:21:43;0.00;0.00;0.62;0.00;0.00;0.62;3.70;1.17;;;24.40;29.40;;;;;;2252966;61;20754;-60
2021/10/14 01:24:28;0.00;0.00;0.62;0.00;0.00;0.62;2.83;1.47;;;24.30;29.40;;;;;;2253059;61;20724;-61
2021/10/14 01:27:12;0.00;0.00;0.62;0.00;0.00;0.62;1.73;1.00;;;24.30;29.40;;;;;;2252830;61;20759;-61
2021/10/14 01:29:57;0.00;0.00;0.62;0.00;0.00;0.62;1.80;1.27;;;24.40;29.50;;;;;;2253616;61;20402;-61
2021/10/14 01:32:41;0.00;0.00;0.62;0.00;0.00;0.62;1.90;1.13;;;24.30;29.50;;;;;;2253977;61;20391;-60
2021/10/14 01:35:26;0.00;0.00;0.62;0.00;0.00;0.62;1.77;1.20;;;24.30;29.50;;;;;;2253982;61;20355;-60
2021/10/14 01:38:12;0.00;0.00;0.62;0.00;0.00;0.62;2.40;1.00;;;24.30;29.50;;;;;;2253970;61;20383;-61
2021/10/14 01:40:56;0.00;0.00;0.62;0.00;0.00;0.62;1.70;1.00;;;24.30;29.60;;;;;;2254372;61;20488;-60
2021/10/14 01:43:41;0.00;0.00;0.62;0.00;0.00;0.62;5.10;1.53;;;24.30;29.60;;;;;;2253652;61;20372;-61
2021/10/14 01:46:26;0.00;0.00;0.62;0.00;0.00;0.62;2.20;1.33;;;24.30;29.60;;;;;;2253653;61;20411;-61
2021/10/14 01:49:10;0.00;0.00;0.62;0.00;0.00;0.62;1.87;1.27;;;24.20;29.50;;;;;;2253670;61;20388;-60
2021/10/14 01:51:55;0.00;0.00;0.62;0.00;0.00;0.62;3.00;1.53;;;24.20;29.60;;;;;;2253698;61;20359;-60
2021/10/14 01:54:40;0.00;0.00;0.62;0.00;0.00;0.62;2.27;1.50;;;24.20;29.60;;;;;;2253798;61;20360;-61
2021/10/14 01:57:25;0.00;0.00;0.62;0.00;0.00;0.62;2.60;1.33;;;24.10;29.50;;;;;;2253846;61;20579;-61
2021/10/14 02:00:12;0.00;0.00;0.62;0.00;0.00;0.62;1.73;1.20;;;24.20;29.50;;;;;;2254784;61;20406;-61
2021/10/14 02:02:56;0.00;0.00;0.62;0.00;0.00;0.62;2.60;1.43;;;24.10;29.50;;;;;;2258319;61;20386;-61
2021/10/14 02:05:41;0.00;0.00;0.62;0.00;0.00;0.62;2.50;1.50;;;24.10;29.50;;;;;;2257315;61;20410;-60
2021/10/14 02:08:25;0.00;0.00;0.62;0.00;0.00;0.62;3.20;1.50;;;24.10;29.50;;;;;;2257755;61;20394;-61
2021/10/14 02:11:11;0.00;0.00;0.62;0.00;0.00;0.62;2.27;1.30;;;24.10;29.50;;;;;;2258135;61;20578;-60
2021/10/14 02:13:56;0.00;0.00;0.62;0.00;0.00;0.62;1.93;1.37;;;24.10;29.50;;;;;;2257807;61;20370;-60
2021/10/14 02:16:41;0.00;0.00;0.62;0.00;0.00;0.62;2.10;1.30;;;24.10;29.50;;;;;;2257552;61;20629;-60
2021/10/14 02:19:25;0.00;0.00;0.62;0.00;0.00;0.62;2.43;1.80;;;24.00;29.40;;;;;;2257728;61;20596;-60
2021/10/14 02:22:10;0.00;0.00;0.62;0.00;0.00;0.62;3.10;1.43;;;24.00;29.40;;;;;;2257934;61;20367;-60
2021/10/14 02:24:55;0.00;0.00;0.62;0.00;0.00;0.62;2.50;1.20;;;24.00;29.40;;;;;;2257759;61;20386;-59
2021/10/14 02:27:41;0.00;0.00;0.62;0.00;0.00;0.62;2.10;1.40;;;24.00;29.40;;;;;;2257221;61;20390;-61
2021/10/14 02:30:25;0.00;0.00;0.62;0.00;0.00;0.62;1.90;1.63;;;24.00;29.40;;;;;;2261621;61;20441;-61
2021/10/14 02:33:10;0.00;0.00;0.62;0.00;0.00;0.62;2.93;2.30;;;23.90;29.40;;;;;;2262211;61;20401;-60
2021/10/14 02:35:55;0.00;0.00;0.62;0.00;0.00;0.62;3.00;2.00;;;23.90;29.40;;;;;;2261546;61;20359;-60
2021/10/14 02:38:39;0.00;0.00;0.62;0.00;0.00;0.62;5.13;2.57;;;23.90;29.50;;;;;;2257688;61;20390;-60
2021/10/14 02:41:25;0.00;0.00;0.62;0.00;0.00;0.62;2.90;1.93;;;23.90;29.60;;;;;;2257568;61;20371;-61
2021/10/14 02:44:10;0.00;0.00;0.62;0.00;0.00;0.62;3.43;2.50;;;23.80;29.50;;;;;;2257910;61;20386;-61
2021/10/14 02:46:55;0.00;0.00;0.62;0.00;0.00;0.62;3.67;2.50;;;23.80;29.60;;;;;;2257628;61;20363;-61
2021/10/14 02:49:39;0.00;0.00;0.62;0.00;0.00;0.62;4.07;2.80;;;23.70;29.60;;;;;;2253310;61;20380;-60
2021/10/14 02:52:24;0.00;0.00;0.62;0.00;0.00;0.62;5.90;2.73;;;23.70;29.70;;;;;;2253628;61;20359;-60
2021/10/14 02:55:09;0.00;0.00;0.62;0.00;0.00;0.62;3.90;2.73;;;23.60;29.70;;;;;;2253962;61;20636;-60
2021/10/14 02:57:53;0.00;0.00;0.62;0.00;0.00;0.62;5.80;2.57;;;23.50;29.80;;;;;;2253611;61;20610;-60
2021/10/14 03:00:39;0.00;0.00;0.62;0.00;0.00;0.62;2.67;2.27;;;23.50;29.90;;;;;;2257642;61;20370;-60
2021/10/14 03:03:23;0.00;0.00;0.62;0.00;0.00;0.62;4.63;2.67;;;23.40;29.90;;;;;;2257696;61;20363;-61
2021/10/14 03:06:08;0.00;0.00;0.62;0.00;0.00;0.62;3.23;2.93;;;23.40;30.00;;;;;;2257530;61;20438;-61
2021/10/14 03:08:53;0.00;0.00;0.62;0.00;0.00;0.62;3.23;2.30;;;23.30;30.00;;;;;;2259560;61;20435;-59
2021/10/14 03:11:37;0.00;0.00;0.62;0.00;0.00;0.62;3.87;3.13;;;23.30;30.20;;;;;;2261743;61;20452;-60
2021/10/14 03:14:22;0.00;0.00;0.62;0.00;0.00;0.62;3.70;2.77;;;23.20;30.00;;;;;;2261985;61;20632;-61
2021/10/14 03:17:09;0.00;0.00;0.62;0.00;0.00;0.62;5.77;3.50;;;23.20;30.10;;;;;;2261871;61;20358;-61
2021/10/14 03:19:53;0.00;0.00;0.62;0.00;0.00;0.62;4.83;3.27;;;23.10;30.20;;;;;;2261367;61;20366;-61
2021/10/14 03:22:38;0.00;0.00;0.62;0.00;0.00;0.62;4.40;3.80;;;23.10;30.20;;;;;;2261473;61;20366;-61
2021/10/14 03:25:22;0.00;0.00;0.62;0.00;0.00;0.62;5.10;3.73;;;23.10;30.40;;;;;;2261722;61;20811;-62
2021/10/14 03:28:07;0.00;0.00;0.62;0.00;0.00;0.62;5.20;3.50;;;23.00;30.40;;;;;;2261575;61;20385;-61
2021/10/14 03:30:51;0.00;0.00;0.62;0.00;0.00;0.62;5.00;3.63;;;23.00;30.40;;;;;;2522487;53;20462;-61
2021/10/14 03:33:37;0.00;0.00;0.62;0.00;0.00;0.62;3.63;3.00;;;22.90;30.40;;;;;;2261691;61;20389;-60
2021/10/14 03:36:21;0.00;0.00;0.62;0.00;0.00;0.62;5.63;3.67;;;22.90;30.50;;;;;;2261621;61;20366;-61
2021/10/14 03:39:06;0.00;0.00;0.62;0.00;0.00;0.62;5.67;4.30;;;22.90;30.60;;;;;;2261933;61;20401;-61
2021/10/14 03:41:50;0.00;0.00;0.62;0.00;0.00;0.62;3.37;2.67;;;22.90;30.80;;;;;;2261101;61;20385;-61
2021/10/14 03:44:35;0.00;0.00;0.62;0.00;0.00;0.62;3.80;2.90;;;22.80;30.70;;;;;;2261185;61;20405;-61
2021/10/14 03:47:20;0.00;0.00;0.62;0.00;0.00;0.62;5.87;2.90;;;22.80;30.70;;;;;;2261775;61;20433;-62
2021/10/14 03:50:08;0.00;0.00;0.62;0.00;0.00;0.62;4.33;2.10;;;22.80;30.80;;;;;;2253652;61;20396;-59
2021/10/14 03:52:53;0.00;0.00;0.62;0.00;0.00;0.62;2.67;2.10;;;22.80;30.80;;;;;;2253343;61;20376;-61
2021/10/14 03:55:37;0.00;0.00;0.62;0.00;0.00;0.62;3.73;2.43;;;22.80;30.70;;;;;;2253572;61;20720;-59
2021/10/14 03:58:22;0.00;0.00;0.62;0.00;0.00;0.62;3.10;2.37;;;22.80;30.70;;;;;;2253315;61;20464;-59
2021/10/14 04:01:06;0.00;0.00;0.62;0.00;0.00;0.62;4.33;2.70;;;22.80;30.70;;;;;;2253320;61;20771;-58
2021/10/14 04:03:51;0.00;0.00;0.62;0.00;0.00;0.62;2.27;2.07;;;22.80;30.70;;;;;;2253270;61;20483;-61
2021/10/14 04:06:37;0.00;0.00;0.62;0.00;0.00;0.62;2.10;1.87;;;22.80;30.70;;;;;;2253117;61;20458;-61
2021/10/14 04:09:21;0.00;0.00;0.62;0.00;0.00;0.62;2.70;2.27;;;22.90;30.80;;;;;;2253783;61;20395;-61
2021/10/14 04:12:06;0.00;0.00;0.62;0.00;0.00;0.62;2.77;1.97;;;22.90;30.80;;;;;;2253227;61;20604;-60
2021/10/14 04:14:50;0.00;0.00;0.62;0.00;0.00;0.62;4.37;2.50;;;22.90;30.80;;;;;;2253279;61;20359;-58
2021/10/14 04:17:35;0.00;0.00;0.62;0.00;0.00;0.62;4.40;3.27;;;22.90;30.80;;;;;;2253350;61;20387;-61
2021/10/14 04:20:19;0.00;0.00;0.62;0.00;0.00;0.62;3.93;2.70;;;22.90;30.80;;;;;;2253466;61;20395;-60
2021/10/14 04:23:05;0.00;0.00;0.62;0.00;0.00;0.62;3.43;2.77;;;22.90;30.80;;;;;;2253431;61;20360;-60
2021/10/14 04:25:50;0.00;0.00;0.62;0.00;0.00;0.62;3.07;2.77;;;23.00;30.80;;;;;;2252911;61;20465;-61
2021/10/14 04:28:35;0.00;0.00;0.62;0.00;0.00;0.62;5.30;2.60;;;22.90;30.80;;;;;;2253394;61;20439;-60
2021/10/14 04:31:19;0.00;0.00;0.62;0.00;0.00;0.62;3.13;1.90;;;23.00;30.90;;;;;;2253761;61;20720;-61
2021/10/14 04:34:06;0.00;0.00;0.62;0.00;0.00;0.62;2.17;1.83;;;22.90;30.80;;;;;;2253122;61;20716;-60
2021/10/14 04:36:51;0.00;0.00;0.62;0.00;0.00;0.62;2.33;1.80;;;22.90;30.80;;;;;;2253381;61;20438;-59
2021/10/14 04:39:38;0.00;0.00;0.62;0.00;0.00;0.62;2.33;1.87;;;23.00;30.80;;;;;;2257232;61;20374;-60
2021/10/14 04:42:22;0.00;0.00;0.62;0.00;0.00;0.62;4.03;2.33;;;23.00;30.80;;;;;;2257440;61;20702;-60
2021/10/14 04:45:08;0.00;0.00;0.62;0.00;0.00;0.62;2.83;2.17;;;23.00;30.90;;;;;;2257246;61;20599;-60
2021/10/14 04:47:52;0.00;0.00;0.62;0.00;0.00;0.62;2.43;1.90;;;23.00;30.90;;;;;;2257121;61;20808;-61
2021/10/14 04:50:37;0.00;0.00;0.62;0.00;0.00;0.62;2.50;1.90;;;23.00;30.90;;;;;;2257551;61;20383;-60
2021/10/14 04:53:21;0.00;0.00;0.62;0.00;0.00;0.62;2.70;1.90;;;23.00;30.90;;;;;;2257656;61;20358;-61
2021/10/14 04:56:07;0.00;0.00;0.62;0.00;0.00;0.62;2.70;1.80;;;23.00;30.80;;;;;;2256841;61;20576;-61
2021/10/14 04:58:51;0.00;0.00;0.62;0.00;0.00;0.62;3.10;1.80;;;23.00;30.90;;;;;;2257352;61;20387;-61
2021/10/14 05:01:36;0.00;0.00;0.62;0.00;0.00;0.62;2.20;1.87;;;23.00;30.90;;;;;;2257333;61;20362;-61
2021/10/14 05:04:20;0.00;0.00;0.62;0.00;0.00;0.62;2.80;2.20;;;23.00;30.90;;;;;;2257582;61;20715;-61
2021/10/14 05:07:05;0.00;0.00;0.62;0.00;0.00;0.62;2.40;1.83;;;23.00;30.90;;;;;;2257804;61;20359;-60
2021/10/14 05:09:50;0.00;0.00;0.62;0.00;0.00;0.62;1.97;1.43;;;23.00;30.90;;;;;;2258108;61;20366;-61
2021/10/14 05:12:36;0.00;0.00;0.62;0.00;0.00;0.62;2.50;1.90;;;23.00;30.90;;;;;;2258434;61;20363;-60
2021/10/14 05:15:20;0.00;0.00;0.62;0.00;0.00;0.62;2.20;2.00;;;23.00;30.90;;;;;;2258263;61;20485;-60
2021/10/14 05:18:06;0.00;0.00;0.62;0.00;0.00;0.62;3.20;1.90;;;23.00;30.90;;;;;;2257709;61;20437;-61
2021/10/14 05:20:51;0.00;0.00;0.62;0.00;0.00;0.62;2.83;2.60;;;23.00;30.90;;;;;;2257951;61;20572;-61
2021/10/14 05:23:35;0.00;0.00;0.62;0.00;0.00;0.62;2.70;2.00;;;23.00;30.90;;;;;;2258360;61;20418;-60
2021/10/14 05:26:20;0.00;0.00;0.62;0.00;0.00;0.62;2.53;1.90;;;23.10;31.00;;;;;;2257877;61;20723;-60
2021/10/14 05:29:05;0.00;0.00;0.62;0.00;0.00;0.62;2.90;2.33;;;23.00;31.60;;;;;;2257837;61;20595;-59
2021/10/14 05:31:50;0.00;0.00;0.62;0.00;0.00;0.62;3.00;2.03;;;23.10;31.00;;;;;;2257971;61;20442;-61
2021/10/14 05:34:35;0.00;0.00;0.62;0.00;0.00;0.62;3.43;1.83;;;23.10;31.00;;;;;;2258060;61;20471;-61
2021/10/14 05:37:19;0.00;0.00;0.62;0.00;0.00;0.62;2.07;1.63;;;23.10;30.90;;;;;;2257807;61;20516;-60
2021/10/14 05:40:05;0.00;0.00;0.62;0.00;0.00;0.62;4.80;2.10;;;23.10;30.90;;;;;;2257631;61;20447;-60
2021/10/14 05:42:50;0.00;0.00;0.62;0.00;0.00;0.62;2.60;1.70;;;23.10;30.90;;;;;;2257854;61;20407;-60
2021/10/14 05:45:36;0.00;0.00;0.62;0.00;0.00;0.62;2.80;2.03;;;23.10;30.90;;;;;;2258226;61;20394;-59
2021/10/14 05:48:20;0.00;0.00;0.62;0.00;0.00;0.62;2.63;2.10;;;23.10;30.90;;;;;;2257715;61;20725;-59
2021/10/14 05:51:05;0.00;0.00;0.62;0.00;0.00;0.62;2.70;2.37;;;23.10;30.90;;;;;;2257939;61;20632;-60
2021/10/14 05:53:49;0.00;0.00;0.62;0.00;0.00;0.62;2.67;2.27;;;23.10;30.90;;;;;;2258006;61;20363;-60
2021/10/14 05:56:34;0.00;0.00;0.62;0.00;0.00;0.62;2.80;1.87;;;23.10;30.90;;;;;;2257774;61;20624;-61
2021/10/14 05:59:18;0.00;0.00;0.62;0.00;0.00;0.62;3.90;2.47;;;23.10;30.90;;;;;;2254773;61;20382;-61
2021/10/14 06:02:04;0.00;0.00;0.62;0.00;0.00;0.62;3.23;2.63;;;23.10;30.90;;;;;;2257585;61;20410;-59
2021/10/14 06:04:50;0.00;0.00;0.62;0.00;0.00;0.62;2.57;1.83;;;23.10;31.60;;;;;;2257551;61;20366;-59
2021/10/14 06:07:35;0.00;0.00;0.62;0.00;0.00;0.62;4.00;2.50;;;23.10;30.90;;;;;;2257960;61;20438;-58
2021/10/14 06:10:19;0.00;0.00;0.62;0.00;0.00;0.62;4.87;3.07;;;23.10;30.90;;;;;;2257625;61;20573;-59
2021/10/14 06:13:04;0.00;0.00;0.62;0.00;0.00;0.62;3.17;2.60;;;23.10;30.90;;;;;;2257787;61;20402;-61
2021/10/14 06:15:48;0.00;0.00;0.62;0.00;0.00;0.62;3.03;2.27;;;23.10;31.00;;;;;;2257574;61;20732;-61
2021/10/14 06:18:37;0.00;0.00;0.62;0.00;0.00;0.62;5.40;3.27;;;23.10;31.00;;;;;;2257814;61;20386;-61
2021/10/14 06:21:22;0.00;0.00;0.62;0.00;0.00;0.62;3.93;2.97;;;23.10;31.00;;;;;;2257776;61;20382;-60
2021/10/14 06:24:07;0.00;0.00;0.62;0.00;0.00;0.62;5.80;2.97;;;23.10;31.00;;;;;;2257641;61;20363;-60
2021/10/14 06:26:52;0.00;0.00;0.62;0.00;0.00;0.62;3.30;2.73;;;23.10;31.00;;;;;;2257709;61;20386;-61
2021/10/14 06:29:36;0.00;0.00;0.62;0.00;0.00;0.62;3.77;3.10;;;23.10;31.10;;;;;;2258181;61;20784;-60
2021/10/14 06:32:21;0.00;0.00;0.62;0.00;0.00;0.62;4.80;3.00;;;23.10;31.10;;;;;;2257533;61;20449;-61
2021/10/14 06:35:08;0.00;0.00;0.62;0.00;0.00;0.62;4.40;2.47;;;23.10;31.10;;;;;;2257621;61;20362;-58
2021/10/14 06:37:55;0.00;0.00;0.62;0.00;0.00;0.62;3.10;2.10;;;23.10;31.00;;;;;;2257665;61;20395;-60
2021/10/14 06:40:39;0.00;0.00;0.62;0.00;0.00;0.62;2.97;2.30;;;23.10;31.00;;;;;;2257781;61;20734;-62
2021/10/14 06:43:24;0.00;0.00;0.62;0.00;0.00;0.62;2.30;1.90;;;23.10;31.00;;;;;;2257674;61;20425;-60
2021/10/14 06:46:09;0.00;0.00;0.62;0.00;0.00;0.62;4.77;3.17;;;23.10;31.00;;;;;;2257643;61;20419;-60
2021/10/14 06:48:53;0.00;0.00;0.62;0.00;0.00;0.62;4.50;3.20;;;23.10;31.10;;;;;;2258048;61;20450;-61
2021/10/14 06:51:39;0.00;0.00;0.62;0.00;0.00;0.62;3.83;2.37;;;23.10;31.10;;;;;;2258148;61;20367;-63
2021/10/14 06:54:24;0.00;0.00;0.62;0.00;0.00;0.62;3.97;3.00;;;23.10;31.20;;;;;;2257418;61;20730;-62
2021/10/14 06:57:08;0.00;0.00;0.62;0.00;0.00;0.62;5.03;2.57;;;23.10;31.20;;;;;;2257524;61;20401;-63
2021/10/14 06:59:53;0.00;0.00;0.62;0.00;0.00;0.62;6.20;3.07;;;23.10;31.20;;;;;;2258013;61;20397;-62
2021/10/14 07:02:37;0.00;0.00;0.62;0.00;0.00;0.62;6.67;3.67;;;23.10;31.30;;;;;;2257783;61;20367;-67
2021/10/14 07:05:22;0.00;0.00;0.62;0.00;0.00;0.62;6.17;2.30;;;23.10;31.30;;;;;;2257612;61;20390;-63
2021/10/14 07:08:08;0.00;0.00;0.62;0.00;0.00;0.62;4.60;2.80;;;23.10;31.30;;;;;;2257552;61;20469;-62
2021/10/14 07:10:52;0.00;0.00;0.62;0.00;0.00;0.62;3.53;2.47;;;23.10;31.30;;;;;;2258015;61;20479;-65
2021/10/14 07:13:38;0.00;0.00;0.62;0.00;0.00;0.62;4.33;2.50;;;23.10;31.30;;;;;;2257802;61;20612;-65
2021/10/14 07:16:22;0.00;0.00;0.62;0.00;0.00;0.62;6.23;2.87;;;23.10;31.30;;;;;;2257208;61;20351;-65
2021/10/14 07:19:06;0.00;0.00;0.62;0.00;0.00;0.62;5.23;2.60;;;23.20;31.30;;;;;;2257572;61;20390;-62
2021/10/14 07:21:51;0.00;0.00;0.62;0.00;0.00;0.62;3.37;2.30;;;23.20;31.40;;;;;;2258141;61;20402;-62
2021/10/14 07:24:38;0.00;0.00;0.62;0.00;0.00;0.62;4.30;1.87;;;23.20;31.40;;;;;;2257770;61;20435;-62
2021/10/14 07:27:23;0.00;0.00;0.62;0.00;0.00;0.62;3.03;1.90;;;23.20;31.40;;;;;;2257295;61;20362;-62
2021/10/14 07:30:09;0.00;0.00;0.62;0.00;0.00;0.62;2.53;2.20;;;23.20;31.30;;;;;;2257725;61;20615;-62
2021/10/14 07:32:53;0.00;0.00;0.62;0.00;0.00;0.62;4.33;2.47;;;23.20;31.30;;;;;;2257688;61;20410;-62
2021/10/14 07:35:40;0.00;0.00;0.62;0.00;0.00;0.62;4.60;1.73;;;23.20;31.40;;;;;;2257568;61;20742;-65
2021/10/14 07:38:24;0.00;0.00;0.62;0.00;0.00;0.62;2.27;1.67;;;23.30;31.50;;;;;;2257282;61;20762;-64
2021/10/14 07:41:10;0.00;0.00;0.62;0.00;0.00;0.62;2.70;2.23;;;23.20;31.40;;;;;;2257419;61;20366;-62
2021/10/14 07:43:55;0.00;0.00;0.62;0.00;0.00;0.62;4.00;2.50;;;23.30;31.60;;;;;;2257977;61;20355;-60
2021/10/14 07:46:40;0.00;0.00;0.62;0.00;0.00;0.62;2.73;1.90;;;23.30;31.60;;;;;;2257217;61;20794;-62
2021/10/14 07:49:24;0.00;0.00;0.62;0.00;0.00;0.62;2.40;2.10;;;23.30;31.70;;;;;;2257158;61;20766;-60
2021/10/14 07:52:09;0.00;0.00;0.62;0.00;0.00;0.62;3.17;2.00;;;23.30;31.60;;;;;;2257511;61;20435;-61
2021/10/14 07:54:53;0.00;0.00;0.62;0.00;0.00;0.62;3.00;1.87;;;23.30;31.70;;;;;;2257553;61;20366;-66
2021/10/14 07:57:39;0.00;0.00;0.62;0.00;0.00;0.62;3.10;1.90;;;23.30;31.70;;;;;;2257322;61;20403;-62
2021/10/14 08:00:23;0.00;0.00;0.62;0.00;0.00;0.62;2.10;1.80;;;23.30;31.70;;;;;;2257208;61;20367;-65
2021/10/14 08:03:08;0.00;0.00;0.62;0.00;0.00;0.62;3.00;2.00;;;23.30;31.70;;;;;;2257306;61;20363;-63
2021/10/14 08:05:53;0.00;0.00;0.62;0.00;0.00;0.62;3.03;1.50;;;23.30;31.70;;;;;;2257789;61;20434;-62
2021/10/14 08:08:37;0.00;0.00;0.62;0.00;0.00;0.62;1.97;1.60;;;23.30;31.70;;;;;;2257199;61;20453;-61
2021/10/14 08:11:22;0.00;0.00;0.62;0.00;0.00;0.62;1.80;1.53;;;23.40;31.70;;;;;;2257437;61;20363;-63
2021/10/14 08:14:08;0.00;0.00;0.62;0.00;0.00;0.62;1.80;1.33;;;23.40;31.70;;;;;;2257557;61;20838;-60
2021/10/14 08:16:52;0.00;0.00;0.62;0.00;0.00;0.62;2.43;2.00;;;23.40;31.70;;;;;;2257302;61;20429;-63
2021/10/14 08:19:37;0.00;0.00;0.62;0.00;0.00;0.62;2.00;1.57;;;23.30;31.60;;;;;;2257360;61;20681;-64
2021/10/14 08:22:21;0.00;0.00;0.62;0.00;0.00;0.62;3.47;1.90;;;23.40;31.60;;;;;;2257542;61;20359;-62
2021/10/14 08:25:12;0.00;0.00;0.62;0.00;0.00;0.62;2.23;2.00;;;23.40;31.60;;;;;;2257783;61;20649;-61
2021/10/14 08:27:59;0.00;0.00;0.62;0.00;0.00;0.62;2.57;1.77;;;23.40;31.70;;;;;;2257552;61;20411;-62
2021/10/14 08:30:50;0.00;0.00;0.62;0.00;0.00;0.62;2.47;1.73;;;23.40;31.60;;;;;;2257326;61;20367;-61
2021/10/14 08:33:35;0.00;0.00;0.62;0.00;0.00;0.62;2.40;1.93;;;23.40;31.60;;;;;;2257357;61;20371;-61
2021/10/14 08:36:19;0.00;0.00;0.62;0.00;0.00;0.62;2.80;1.43;;;23.40;31.70;;;;;;2257248;61;20359;-63
2021/10/14 08:39:04;0.00;0.00;0.62;0.00;0.00;0.62;2.83;1.60;;;23.40;31.60;;;;;;2257212;61;20418;-63
2021/10/14 08:41:50;0.00;0.00;0.62;0.00;0.00;0.62;2.20;1.53;;;23.40;31.60;;;;;;2257265;61;20386;-64
2021/10/14 08:44:36;0.00;0.00;0.62;0.00;0.00;0.62;2.40;2.10;;;23.40;31.70;;;;;;2257437;61;20378;-61
2021/10/14 08:47:22;0.00;0.00;0.62;0.00;0.00;0.62;2.43;2.17;;;23.40;31.70;;;;;;2257695;61;20358;-65
2021/10/14 08:50:10;0.00;0.00;0.62;0.00;0.00;0.62;3.27;2.30;;;23.40;31.80;;;;;;2257779;61;20367;-67
2021/10/14 08:52:55;0.00;0.00;0.62;0.00;0.00;0.62;2.70;2.37;;;23.40;31.90;;;;;;2257311;61;20402;-63
2021/10/14 08:55:40;0.00;0.00;0.62;0.00;0.00;0.62;2.23;1.87;;;23.30;31.90;;;;;;2257240;61;20374;-62
2021/10/14 08:58:25;0.00;0.00;0.62;0.00;0.00;0.62;1.90;1.23;;;23.40;32.00;;;;;;2254032;61;20390;-61
2021/10/14 09:01:12;0.00;0.00;0.62;0.00;0.00;0.62;2.77;1.40;;;23.40;31.90;;;;;;2257431;61;20718;-65
2021/10/14 09:03:58;0.00;0.00;0.62;0.00;0.00;0.62;2.63;1.67;;;23.40;31.90;;;;;;2257394;61;20363;-63
2021/10/14 09:06:42;0.00;0.00;0.62;0.00;0.00;0.62;1.97;1.73;;;23.40;31.90;;;;;;2257213;61;20433;-63
2021/10/14 09:09:37;0.00;0.00;0.62;0.00;0.00;0.62;2.47;1.57;;;23.40;31.90;;;;;;2257671;61;20399;-63
2021/10/14 09:12:23;0.00;0.00;0.62;0.00;0.00;0.62;2.30;1.80;;;23.40;32.00;;;;;;2257820;61;20413;-64
2021/10/14 09:15:10;0.00;0.00;0.62;0.00;0.00;0.62;2.03;1.40;;;23.40;32.00;;;;;;2256764;61;20362;-63
2021/10/14 09:17:55;0.00;0.00;0.62;0.00;0.00;0.62;2.03;1.77;;;23.40;32.10;;;;;;2256986;61;20414;-63
2021/10/14 09:20:40;0.00;0.00;0.62;0.00;0.00;0.62;2.33;1.70;;;23.40;32.00;;;;;;2257291;61;20371;-61
2021/10/14 09:23:28;0.00;0.00;0.62;0.00;0.00;0.62;1.60;1.23;;;23.40;32.00;;;;;;2257258;61;20367;-62
2021/10/14 09:26:13;0.00;0.00;0.62;0.00;0.00;0.62;3.17;1.40;;;23.40;32.00;;;;;;2256942;61;20607;-62
2021/10/14 09:29:07;0.00;0.00;0.62;0.00;0.00;0.62;2.00;1.70;;;23.40;32.00;;;;;;2257313;61;20406;-63
2021/10/14 09:31:56;0.00;0.00;0.62;0.00;0.00;0.62;2.87;1.60;;;23.40;32.10;;;;;;2257291;61;20359;-62
2021/10/14 09:34:42;0.00;0.00;0.62;0.00;0.00;0.62;1.80;1.50;;;23.40;32.00;;;;;;2257378;61;20363;-64
2021/10/14 09:37:30;0.00;0.00;0.62;0.00;0.00;0.62;2.43;2.10;;;23.40;32.00;;;;;;2256701;61;20670;-61
2021/10/14 09:40:15;0.00;0.00;0.62;0.00;0.00;0.62;3.20;1.63;;;23.50;32.10;;;;;;2257131;61;20374;-62
2021/10/14 09:43:01;0.00;0.00;0.62;0.00;0.00;0.62;3.70;1.43;;;23.50;32.10;;;;;;2257323;61;20366;-63
2021/10/14 09:45:45;0.00;0.00;0.62;0.00;0.00;0.62;2.20;1.70;;;23.50;32.10;;;;;;2257286;61;20676;-62
2021/10/14 09:48:31;0.00;0.00;0.62;0.00;0.00;0.62;1.80;1.50;;;23.50;32.20;;;;;;2256966;61;20406;-61
2021/10/14 09:51:15;0.00;0.00;0.62;0.00;0.00;0.62;2.13;1.63;;;23.50;32.20;;;;;;2257742;61;20363;-63
2021/10/14 09:54:02;0.00;0.00;0.62;0.00;0.00;0.62;2.03;1.43;;;23.40;32.10;;;;;;2258162;61;20787;-61
2021/10/14 09:56:47;0.00;0.00;0.62;0.00;0.00;0.62;2.10;1.40;;;23.40;32.10;;;;;;2258114;61;20843;-63
2021/10/14 09:59:32;0.00;0.00;0.62;0.00;0.00;0.62;4.30;1.50;;;23.40;32.10;;;;;;2257619;61;20395;-62
2021/10/14 10:02:16;0.00;0.00;0.62;0.00;0.00;0.62;2.10;1.23;;;23.40;32.20;;;;;;2257485;61;20447;-65
2021/10/14 10:05:01;0.00;0.00;0.62;0.00;0.00;0.62;2.50;1.33;;;23.40;32.20;;;;;;2257913;61;20685;-60
2021/10/14 10:07:50;0.00;0.00;0.62;0.00;0.00;0.62;1.80;1.00;;;23.40;32.30;;;;;;2257675;61;20414;-60
2021/10/14 10:10:40;0.00;0.00;0.62;0.00;0.00;0.62;3.60;1.93;;;23.40;32.30;;;;;;2257823;61;20589;-62
2021/10/14 10:13:26;0.00;0.00;0.62;0.00;0.00;0.62;3.53;2.43;;;23.40;32.40;;;;;;2258034;61;20711;-64
2021/10/14 10:16:14;0.00;0.00;0.62;0.00;0.00;0.62;2.70;2.30;;;23.40;32.50;;;;;;2257915;61;20727;-63
2021/10/14 10:19:00;0.00;0.00;0.62;0.00;0.00;0.62;3.10;2.03;;;23.40;32.40;;;;;;2258286;61;20382;-62
2021/10/14 10:21:45;0.00;0.00;0.62;0.00;0.00;0.62;2.70;2.37;;;23.40;32.40;;;;;;2257621;61;20435;-63
2021/10/14 10:24:32;0.00;0.00;0.62;0.00;0.00;0.62;2.67;2.30;;;23.30;32.30;;;;;;2257723;61;20435;-63
2021/10/14 10:27:33;0.00;0.00;0.62;0.00;0.00;0.62;2.87;2.00;;;23.30;32.40;;;;;;2254779;61;20712;-65
2021/10/14 10:30:27;0.00;0.00;0.62;0.00;0.00;0.62;3.07;2.40;;;23.30;32.50;;;;;;2256418;61;20598;-65
2021/10/14 10:33:12;0.00;0.00;0.62;0.00;0.00;0.62;3.87;3.20;;;23.30;32.50;;;;;;2257883;61;20410;-65
2021/10/14 10:35:56;0.00;0.00;0.62;0.00;0.00;0.62;3.13;2.60;;;23.30;32.60;;;;;;2257317;61;20442;-65
2021/10/14 10:38:42;0.00;0.00;0.62;0.00;0.00;0.62;3.40;2.60;;;23.30;32.60;;;;;;2254047;61;20567;-67
2021/10/14 10:41:26;0.00;0.00;0.62;0.00;0.00;0.62;4.37;1.90;;;23.30;32.60;;;;;;2254269;61;20360;-66
2021/10/14 10:44:12;0.00;0.00;0.62;0.00;0.00;0.62;4.00;2.60;;;23.30;32.70;;;;;;2253356;61;20364;-67
2021/10/14 10:46:57;0.00;0.00;0.62;0.00;0.00;0.62;3.40;2.07;;;23.30;32.70;;;;;;2252656;61;20515;-70
2021/10/14 10:49:53;0.00;0.00;0.62;0.00;0.00;0.62;2.90;2.10;;;23.40;32.80;;;;;;2253800;61;20387;-64
2021/10/14 10:52:40;0.00;0.00;0.62;0.00;0.00;0.62;9.80;3.20;;;23.40;32.70;;;;;;2253674;61;20400;-69